Time;durP1;ratioP1;P1;durP2;ratioP2;P2;SDS_P1;SDS_P2;PMS_P1;PMS_P2;Temp;Humidity;BMP_temperature;BMP_pressure;BME280_temperature;BME280_humidity;BME280_pressure;Samples;Min_cycle;Max_cycle;Signal;HPM_P1;HPM_P2
2022/05/28 00:00:39;;;;;;;2.95;1.33;;;17.60;99.90;;;;;;5072959;28;20202;-70
2022/05/28 00:03:06;;;;;;;2.03;1.83;;;17.50;99.90;;;;;;5073447;28;20285;-69
2022/05/28 00:05:35;;;;;;;1.23;1.13;;;17.40;99.90;;;;;;5073090;28;20205;-69
2022/05/28 00:08:02;;;;;;;1.98;1.60;;;17.40;99.90;;;;;;5072994;28;20206;-69
2022/05/28 00:10:29;;;;;;;1.80;1.70;;;17.40;99.90;;;;;;5073106;28;20722;-69
2022/05/28 00:12:58;;;;;;;2.67;2.00;;;17.30;99.90;;;;;;5073347;28;20686;-69
2022/05/28 00:15:25;;;;;;;2.47;1.63;;;17.20;99.90;;;;;;5073288;28;20206;-70
2022/05/28 00:17:52;;;;;;;3.00;2.20;;;17.20;99.90;;;;;;5072658;28;20286;-70
2022/05/28 00:20:20;;;;;;;2.92;1.17;;;17.10;99.90;;;;;;5073040;28;20271;-70
2022/05/28 00:22:47;;;;;;;3.05;1.67;;;17.20;99.90;;;;;;5072353;28;20554;-68
2022/05/28 00:25:16;;;;;;;2.78;1.52;;;17.20;99.90;;;;;;5072842;28;20198;-68
2022/05/28 00:27:43;;;;;;;2.17;1.42;;;17.20;99.90;;;;;;5072300;28;20206;-70
2022/05/28 00:30:14;;;;;;;1.70;1.50;;;17.10;99.90;;;;;;5072850;28;20256;-70
2022/05/28 00:32:42;;;;;;;1.90;1.67;;;17.10;99.90;;;;;;5072427;28;20261;-70
2022/05/28 00:35:12;;;;;;;3.58;1.65;;;17.00;99.90;;;;;;5072663;28;20674;-70
2022/05/28 00:37:39;;;;;;;1.90;1.45;;;17.00;99.90;;;;;;5072049;28;20229;-68
2022/05/28 00:40:10;;;;;;;1.60;1.50;;;16.90;99.90;;;;;;5072484;28;20202;-70
2022/05/28 00:42:37;;;;;;;2.25;1.63;;;16.90;99.90;;;;;;5071916;28;20198;-69
2022/05/28 00:45:04;;;;;;;1.63;1.15;;;16.80;99.90;;;;;;5072331;28;20209;-69
2022/05/28 00:47:33;;;;;;;3.13;2.00;;;16.80;99.90;;;;;;5072097;28;20198;-68
2022/05/28 00:50:00;;;;;;;1.98;1.35;;;16.80;99.90;;;;;;5072477;28;20272;-69
2022/05/28 00:52:28;;;;;;;1.85;1.65;;;16.70;99.90;;;;;;5072275;28;20217;-68
2022/05/28 00:54:55;;;;;;;2.10;1.58;;;16.60;99.90;;;;;;5072032;28;20210;-68
2022/05/28 00:57:24;;;;;;;2.20;1.92;;;16.70;99.90;;;;;;5072213;28;20733;-68
2022/05/28 00:59:51;;;;;;;4.10;1.60;;;16.70;99.90;;;;;;5071776;28;21049;-68
2022/05/28 01:02:23;;;;;;;1.67;1.58;;;16.70;99.90;;;;;;5072155;28;20206;-69
2022/05/28 01:04:58;;;;;;;1.50;1.40;;;16.80;99.90;;;;;;5071599;28;20198;-68
2022/05/28 01:07:39;;;;;;;2.15;1.90;;;16.80;99.90;;;;;;5071195;28;20209;-69
2022/05/28 01:10:14;;;;;;;2.17;1.38;;;16.70;99.90;;;;;;5071777;28;20731;-68
2022/05/28 01:12:49;;;;;;;2.58;1.50;;;16.70;99.90;;;;;;5071504;28;20629;-68
2022/05/28 01:15:21;;;;;;;2.35;1.63;;;16.70;99.90;;;;;;5071800;28;20561;-69
2022/05/28 01:17:51;;;;;;;5.00;1.30;;;16.50;99.90;;;;;;5070986;28;20266;-68
2022/05/28 01:20:24;;;;;;;1.85;1.48;;;16.50;99.90;;;;;;5071530;28;20212;-69
2022/05/28 01:23:18;;;;;;;2.55;1.45;;;16.50;99.90;;;;;;5071193;28;20697;-68
2022/05/28 01:25:57;;;;;;;1.92;1.25;;;16.50;99.90;;;;;;5071265;28;20260;-68
2022/05/28 01:28:30;;;;;;;1.52;1.42;;;16.40;99.90;;;;;;5071651;28;20202;-68
2022/05/28 01:30:58;;;;;;;1.58;1.48;;;16.40;99.90;;;;;;5071604;28;20206;-68
2022/05/28 01:33:25;;;;;;;2.92;1.80;;;16.40;99.90;;;;;;5071673;28;20739;-68
2022/05/28 01:35:54;;;;;;;2.25;1.73;;;16.40;99.90;;;;;;5070937;28;20263;-68
2022/05/28 01:38:22;;;;;;;2.10;1.90;;;16.40;99.90;;;;;;5071203;28;20778;-67
2022/05/28 01:40:49;;;;;;;1.88;1.67;;;16.40;99.90;;;;;;5070974;28;20210;-68
2022/05/28 01:43:19;;;;;;;2.92;1.90;;;16.30;99.90;;;;;;5071117;28;20224;-68
2022/05/28 01:45:50;;;;;;;2.40;2.20;;;16.30;99.90;;;;;;5070695;28;20216;-69
2022/05/28 01:48:19;;;;;;;1.98;1.85;;;16.20;99.90;;;;;;5071302;28;20248;-68
2022/05/28 01:50:50;;;;;;;2.53;1.92;;;16.20;99.90;;;;;;5070747;28;20198;-68
2022/05/28 01:56:02;;;;;;;2.35;1.75;;;16.20;99.90;;;;;;5070810;28;20237;-68
2022/05/28 01:58:29;;;;;;;2.53;1.80;;;16.10;99.90;;;;;;5071015;28;20619;-69
2022/05/28 02:00:59;;;;;;;2.53;2.22;;;16.00;99.90;;;;;;5071533;28;20666;-68
2022/05/28 02:03:27;;;;;;;4.00;1.80;;;15.80;99.90;;;;;;5071188;28;20665;-69
2022/05/28 02:05:55;;;;;;;3.25;2.30;;;15.80;99.90;;;;;;5071090;28;20198;-68
2022/05/28 02:08:23;;;;;;;2.38;2.13;;;15.70;99.90;;;;;;5070921;28;20616;-68
2022/05/28 02:11:10;;;;;;;2.10;1.90;;;15.60;99.90;;;;;;5070699;28;20205;-69
2022/05/28 02:13:54;;;;;;;5.05;3.13;;;15.60;99.90;;;;;;5070535;28;20248;-69
2022/05/28 02:16:31;;;;;;;2.65;1.70;;;15.60;99.90;;;;;;5070909;28;20251;-68
2022/05/28 02:19:02;;;;;;;2.17;2.08;;;15.50;99.90;;;;;;5069814;28;20206;-69
2022/05/28 02:21:36;;;;;;;3.33;1.85;;;15.60;99.90;;;;;;5056992;28;20207;-69
2022/05/28 02:24:08;;;;;;;1.98;1.88;;;15.50;99.90;;;;;;5050489;28;20247;-68
2022/05/28 02:26:39;;;;;;;2.08;1.90;;;15.60;99.90;;;;;;5053385;28;20211;-68
2022/05/28 02:29:07;;;;;;;1.70;1.60;;;15.70;99.90;;;;;;5057035;28;20213;-68
2022/05/28 02:31:36;;;;;;;2.45;1.70;;;15.70;99.90;;;;;;5056221;28;20210;-68
2022/05/28 02:34:04;;;;;;;2.00;1.67;;;15.60;99.90;;;;;;5070239;28;20201;-68
2022/05/28 02:36:31;;;;;;;2.22;1.95;;;15.60;99.90;;;;;;5069844;28;20666;-68
2022/05/28 02:38:58;;;;;;;3.13;1.95;;;15.60;99.90;;;;;;5059771;28;20663;-68
2022/05/28 02:41:25;;;;;;;1.88;1.73;;;15.50;99.90;;;;;;5066887;28;20210;-69
2022/05/28 02:43:53;;;;;;;1.63;1.52;;;15.40;99.90;;;;;;5069943;28;20292;-68
2022/05/28 02:46:20;;;;;;;2.00;1.85;;;15.50;99.90;;;;;;5070267;28;20209;-68
2022/05/28 02:48:49;;;;;;;2.13;1.88;;;15.40;99.90;;;;;;5069678;28;20747;-68
2022/05/28 02:51:18;;;;;;;2.03;1.90;;;15.30;99.90;;;;;;5070151;28;20214;-68
2022/05/28 02:53:46;;;;;;;1.40;1.30;;;15.20;99.90;;;;;;5069909;28;20692;-68
2022/05/28 02:56:13;;;;;;;1.73;1.63;;;15.20;99.90;;;;;;5058521;28;20206;-68
2022/05/28 02:58:40;;;;;;;2.40;1.48;;;15.40;99.90;;;;;;5067668;28;20283;-68
2022/05/28 03:01:17;;;;;;;1.98;1.88;;;15.40;99.90;;;;;;5070305;28;20210;-68
2022/05/28 03:03:44;;;;;;;1.90;1.80;;;15.50;99.90;;;;;;5069736;28;20206;-69
2022/05/28 03:06:13;;;;;;;2.47;1.55;;;15.50;99.90;;;;;;5070291;28;20206;-69
2022/05/28 03:08:40;;;;;;;1.60;1.45;;;15.50;99.90;;;;;;5069446;28;20685;-68
2022/05/28 03:11:07;;;;;;;2.03;1.65;;;15.50;99.90;;;;;;5070004;28;20335;-69
2022/05/28 03:13:34;;;;;;;1.80;1.67;;;15.40;99.90;;;;;;5069741;28;20238;-69
2022/05/28 03:16:01;;;;;;;1.98;1.48;;;15.50;99.90;;;;;;5069830;28;20214;-68
2022/05/28 03:18:28;;;;;;;2.97;1.52;;;15.40;99.90;;;;;;5069830;28;20252;-69
2022/05/28 03:20:55;;;;;;;1.65;1.55;;;15.40;99.90;;;;;;5069832;28;20260;-68
2022/05/28 03:23:23;;;;;;;1.67;1.58;;;15.40;99.90;;;;;;5070119;28;20252;-68
2022/05/28 03:25:50;;;;;;;2.60;1.88;;;15.40;99.90;;;;;;5069581;28;20224;-70
2022/05/28 03:28:17;;;;;;;1.73;1.63;;;15.30;99.90;;;;;;5069969;28;20252;-67
2022/05/28 03:30:44;;;;;;;5.10;2.92;;;15.20;99.90;;;;;;5057060;28;20675;-67
2022/05/28 03:33:11;;;;;;;5.45;1.50;;;15.30;99.90;;;;;;5073512;28;20214;-68
2022/05/28 03:35:40;;;;;;;1.67;1.42;;;15.20;99.90;;;;;;5073332;28;20259;-67
2022/05/28 03:38:07;;;;;;;2.65;1.73;;;15.20;99.90;;;;;;5073417;28;20275;-69
2022/05/28 03:40:35;;;;;;;2.13;2.03;;;15.30;99.90;;;;;;5072992;28;20255;-67
2022/05/28 03:43:02;;;;;;;1.90;1.80;;;15.20;99.90;;;;;;5073037;28;20735;-68
2022/05/28 03:45:29;;;;;;;1.85;1.75;;;15.10;99.90;;;;;;5072777;28;20214;-67
2022/05/28 03:47:57;;;;;;;1.92;1.83;;;15.20;99.90;;;;;;5073474;28;20574;-69
2022/05/28 03:50:24;;;;;;;2.00;1.90;;;15.20;99.90;;;;;;5073990;28;20212;-69
2022/05/28 03:52:51;;;;;;;4.55;1.85;;;15.20;99.90;;;;;;5072940;28;20677;-67
2022/05/28 03:55:18;;;;;;;1.88;1.77;;;15.20;99.90;;;;;;5073177;28;20660;-66
2022/05/28 03:57:47;;;;;;;2.70;1.98;;;15.20;99.90;;;;;;5072573;28;20277;-66
2022/05/28 04:00:15;;;;;;;1.67;1.58;;;15.20;99.90;;;;;;5072867;28;20580;-66
2022/05/28 04:02:42;;;;;;;2.42;2.22;;;15.10;99.90;;;;;;5072747;28;20241;-67
2022/05/28 04:05:10;;;;;;;2.42;2.22;;;15.00;99.90;;;;;;5073024;28;20202;-66
2022/05/28 04:07:38;;;;;;;2.72;1.92;;;15.10;99.90;;;;;;5072576;28;20214;-66
2022/05/28 04:10:06;;;;;;;1.95;1.85;;;15.00;99.90;;;;;;5072748;28;20682;-66
2022/05/28 04:12:33;;;;;;;3.75;1.88;;;14.90;99.90;;;;;;5072409;28;20213;-67
2022/05/28 04:15:02;;;;;;;2.45;2.25;;;14.90;99.90;;;;;;5072634;28;20206;-66
2022/05/28 04:17:29;;;;;;;3.22;2.85;;;14.90;99.90;;;;;;5072894;28;20233;-66
2022/05/28 04:19:56;;;;;;;2.03;1.83;;;15.00;99.90;;;;;;5073187;28;20293;-66
2022/05/28 04:22:23;;;;;;;4.78;2.50;;;15.00;99.90;;;;;;5059306;28;20212;-66
2022/05/28 04:24:50;;;;;;;2.05;1.85;;;15.00;99.90;;;;;;5072275;28;20731;-66
2022/05/28 04:27:17;;;;;;;2.72;2.00;;;14.90;99.90;;;;;;5072463;28;20712;-66
2022/05/28 04:29:44;;;;;;;2.55;2.17;;;14.90;99.90;;;;;;5065065;28;20796;-66
2022/05/28 04:32:12;;;;;;;3.70;2.30;;;14.90;99.90;;;;;;5065333;28;20210;-66
2022/05/28 04:34:39;;;;;;;2.53;2.33;;;14.90;99.90;;;;;;5071819;28;20198;-66
2022/05/28 04:37:06;;;;;;;3.17;2.88;;;15.00;99.90;;;;;;5072778;28;20207;-66
2022/05/28 04:39:33;;;;;;;2.45;2.25;;;14.90;99.90;;;;;;5071832;28;20206;-66
2022/05/28 04:42:00;;;;;;;4.40;2.97;;;14.80;99.90;;;;;;5071237;28;20206;-66
2022/05/28 04:44:27;;;;;;;7.43;3.25;;;14.90;99.90;;;;;;5072112;28;20214;-66
2022/05/28 04:46:54;;;;;;;3.90;2.65;;;;;;;;;;5072196;28;20287;-65
2022/05/28 04:49:23;;;;;;;4.20;3.20;;;14.80;99.90;;;;;;5070160;28;20206;-67
2022/05/28 04:51:50;;;;;;;3.67;2.28;;;15.40;99.90;;;;;;5058668;28;20202;-68
2022/05/28 04:54:17;;;;;;;3.53;2.90;;;14.90;99.90;;;;;;5071795;28;20263;-66
2022/05/28 04:56:44;;;;;;;3.63;2.28;;;15.00;99.90;;;;;;5071015;28;20272;-66
2022/05/28 04:59:11;;;;;;;3.40;2.70;;;14.90;99.90;;;;;;5071659;28;20241;-65
2022/05/28 05:01:38;;;;;;;3.92;3.50;;;15.00;99.90;;;;;;5064067;28;20669;-65
2022/05/28 05:04:05;;;;;;;2.50;2.30;;;14.90;99.90;;;;;;5066269;28;20202;-65
2022/05/28 05:06:34;;;;;;;3.10;2.63;;;15.00;99.90;;;;;;5070982;28;20286;-67
2022/05/28 05:09:04;;;;;;;5.30;3.13;;;14.90;99.90;;;;;;5066412;28;20244;-70
2022/05/28 05:11:32;;;;;;;2.78;2.30;;;15.00;99.90;;;;;;5070853;28;20206;-68
2022/05/28 05:14:00;;;;;;;5.18;2.25;;;15.10;99.90;;;;;;5071493;28;20249;-68
2022/05/28 05:16:27;;;;;;;3.20;2.90;;;15.10;99.90;;;;;;5071414;28;20225;-68
2022/05/28 05:18:54;;;;;;;4.00;2.33;;;15.10;99.90;;;;;;5070962;28;20234;-68
2022/05/28 05:21:21;;;;;;;3.20;2.20;;;15.00;99.90;;;;;;5070221;28;20198;-68
2022/05/28 05:23:50;;;;;;;3.00;1.85;;;15.10;99.90;;;;;;5070635;28;20246;-68
2022/05/28 05:26:19;;;;;;;2.70;2.15;;;15.20;99.90;;;;;;5071039;28;20229;-68
2022/05/28 05:28:47;;;;;;;2.75;2.53;;;15.30;99.90;;;;;;5070348;28;20728;-68
2022/05/28 05:31:15;;;;;;;2.85;2.65;;;15.30;99.90;;;;;;5057414;28;20696;-68
2022/05/28 05:33:42;;;;;;;2.58;2.38;;;15.20;99.90;;;;;;5070476;28;20271;-68
2022/05/28 05:36:09;;;;;;;7.30;2.72;;;15.30;99.90;;;;;;5070868;28;20571;-68
2022/05/28 05:38:37;;;;;;;3.60;2.78;;;15.30;99.90;;;;;;5070787;28;20650;-68
2022/05/28 05:41:05;;;;;;;2.92;2.65;;;15.40;99.90;;;;;;5070521;28;20252;-68
2022/05/28 05:43:33;;;;;;;2.55;2.35;;;15.50;99.90;;;;;;5070627;28;20202;-68
2022/05/28 05:46:02;;;;;;;2.72;2.20;;;15.50;99.90;;;;;;5070630;28;20202;-67
2022/05/28 05:48:30;;;;;;;3.47;2.35;;;15.60;99.90;;;;;;5070688;28;20232;-69
2022/05/28 05:51:04;;;;;;;3.15;2.75;;;15.70;99.90;;;;;;5070777;28;20690;-68
2022/05/28 05:53:31;;;;;;;3.72;2.30;;;15.70;99.90;;;;;;5060418;28;20198;-67
2022/05/28 05:55:58;;;;;;;4.05;2.47;;;15.70;99.90;;;;;;5070686;28;20252;-68
2022/05/28 05:58:27;;;;;;;3.00;2.58;;;15.90;99.90;;;;;;5070774;28;20279;-69
2022/05/28 06:00:54;;;;;;;2.50;2.30;;;15.80;99.90;;;;;;5070298;28;20245;-68
2022/05/28 06:03:21;;;;;;;3.42;3.20;;;15.80;99.90;;;;;;5070726;28;20202;-67
2022/05/28 06:05:48;;;;;;;2.30;2.10;;;15.90;99.90;;;;;;5070369;28;20268;-67
2022/05/28 06:08:15;;;;;;;4.82;3.28;;;16.00;99.90;;;;;;5070652;28;20254;-68
2022/05/28 06:10:43;;;;;;;3.40;2.97;;;16.10;99.90;;;;;;5070029;28;20216;-68
2022/05/28 06:13:10;;;;;;;5.03;3.08;;;16.10;99.90;;;;;;5070306;28;20202;-68
2022/05/28 06:15:38;;;;;;;3.05;2.75;;;16.20;99.90;;;;;;5070101;28;20582;-68
2022/05/28 06:18:05;;;;;;;3.45;3.15;;;16.40;99.90;;;;;;5070626;28;20272;-68
2022/05/28 06:20:32;;;;;;;5.63;4.18;;;16.50;99.90;;;;;;5069834;28;20206;-68
2022/05/28 06:22:59;;;;;;;3.63;2.75;;;16.50;99.90;;;;;;5070657;28;20283;-68
2022/05/28 06:25:26;;;;;;;3.03;2.83;;;16.50;99.90;;;;;;5070435;28;20206;-68
2022/05/28 06:27:53;;;;;;;2.75;2.55;;;16.60;99.90;;;;;;5069978;28;20206;-70
2022/05/28 06:30:20;;;;;;;4.75;3.22;;;16.70;99.90;;;;;;5062947;28;20210;-69
2022/05/28 06:32:49;;;;;;;3.95;3.58;;;16.80;99.90;;;;;;5070227;28;20263;-68
2022/05/28 06:35:16;;;;;;;2.22;2.13;;;16.90;99.90;;;;;;5070231;28;20997;-69
2022/05/28 06:37:43;;;;;;;3.03;2.40;;;17.10;99.90;;;;;;5070056;28;20206;-68
2022/05/28 06:40:10;;;;;;;5.00;2.83;;;17.20;99.90;;;;;;5069598;28;20287;-70
2022/05/28 06:42:38;;;;;;;2.78;2.58;;;17.30;99.90;;;;;;5069946;28;20259;-69
2022/05/28 06:45:06;;;;;;;6.07;2.33;;;17.40;99.90;;;;;;5070455;28;20220;-69
2022/05/28 06:47:33;;;;;;;3.35;2.58;;;17.50;99.90;;;;;;5070083;28;20199;-70
2022/05/28 06:52:45;;;;;;;3.67;2.58;;;17.60;99.90;;;;;;5069997;28;20268;-71
2022/05/28 06:55:12;;;;;;;5.78;3.40;;;17.70;99.90;;;;;;5069680;28;20206;-69
2022/05/28 06:57:39;;;;;;;4.38;1.88;;;17.90;99.90;;;;;;5069832;28;20203;-70
2022/05/28 07:00:08;;;;;;;3.42;2.67;;;18.00;99.90;;;;;;5070039;28;20230;-71
2022/05/28 07:02:34;;;;;;;2.58;2.38;;;18.10;99.90;;;;;;5069821;28;20198;-68
2022/05/28 07:05:03;;;;;;;2.65;2.45;;;18.20;99.90;;;;;;5071303;28;20267;-70
2022/05/28 07:07:30;;;;;;;6.03;3.20;;;18.20;99.90;;;;;;5073814;28;20214;-71
2022/05/28 07:09:57;;;;;;;4.00;2.22;;;18.20;99.90;;;;;;5074093;28;20210;-70
2022/05/28 07:12:24;;;;;;;2.60;2.40;;;18.30;99.90;;;;;;5074171;28;20202;-69
2022/05/28 07:14:51;;;;;;;3.78;2.50;;;18.50;99.90;;;;;;5073537;28;20622;-70
2022/05/28 07:17:18;;;;;;;1.80;1.70;;;18.80;99.90;;;;;;5073684;28;20735;-68
2022/05/28 07:19:45;;;;;;;2.90;2.58;;;18.70;99.90;;;;;;5073074;28;20279;-71
2022/05/28 07:22:14;;;;;;;4.85;2.85;;;18.80;99.90;;;;;;5073356;28;20289;-68
2022/05/28 07:24:41;;;;;;;3.08;2.78;;;18.80;99.90;;;;;;5073460;28;20264;-71
2022/05/28 07:27:08;;;;;;;2.53;2.13;;;18.80;99.90;;;;;;5073760;28;20210;-71
2022/05/28 07:29:35;;;;;;;2.70;2.50;;;18.90;99.90;;;;;;5067555;28;20203;-67
2022/05/28 07:32:02;;;;;;;2.45;2.25;;;19.30;99.90;;;;;;5071634;28;20264;-67
2022/05/28 07:34:29;;;;;;;4.80;2.55;;;20.20;99.90;;;;;;5073387;28;20232;-68
2022/05/28 07:36:56;;;;;;;3.75;2.28;;;20.50;99.90;;;;;;5073704;28;20661;-70
2022/05/28 07:39:24;;;;;;;4.32;3.38;;;19.70;99.90;;;;;;5073626;28;20253;-68
2022/05/28 07:41:51;;;;;;;4.43;2.92;;;19.40;99.90;;;;;;5073246;28;20264;-72
2022/05/28 07:44:19;;;;;;;2.53;2.33;;;19.30;99.90;;;;;;5073425;28;20222;-68
2022/05/28 07:46:46;;;;;;;3.05;2.75;;;19.20;99.90;;;;;;5072794;28;20206;-68
2022/05/28 07:49:13;;;;;;;3.25;2.83;;;19.30;99.90;;;;;;5073196;28;20620;-70
2022/05/28 07:51:40;;;;;;;2.63;2.42;;;19.40;99.90;;;;;;5072314;28;20206;-71
2022/05/28 07:54:09;;;;;;;2.70;2.50;;;19.60;99.90;;;;;;5073030;28;20214;-68
2022/05/28 07:56:37;;;;;;;2.70;2.50;;;19.60;99.90;;;;;;5058266;28;20303;-68
2022/05/28 07:59:04;;;;;;;3.25;2.95;;;19.60;99.90;;;;;;5073149;28;20234;-68
2022/05/28 08:01:35;;;;;;;2.38;2.17;;;19.90;99.90;;;;;;5071245;28;20662;-69
2022/05/28 08:04:02;;;;;;;3.35;2.40;;;20.50;99.90;;;;;;5071391;28;20206;-68
2022/05/28 08:06:30;;;;;;;4.60;2.55;;;21.10;99.90;;;;;;5072040;28;20198;-68
2022/05/28 08:08:58;;;;;;;2.40;2.20;;;22.00;99.90;;;;;;5070634;28;20487;-69
2022/05/28 08:11:26;;;;;;;2.28;1.80;;;21.00;99.90;;;;;;5071839;28;20210;-68
2022/05/28 08:13:54;;;;;;;2.00;1.90;;;20.60;99.90;;;;;;5062869;28;20271;-67
2022/05/28 08:16:22;;;;;;;1.75;1.65;;;20.40;99.90;;;;;;5063126;28;20673;-67
2022/05/28 08:18:49;;;;;;;2.20;1.98;;;20.50;99.90;;;;;;5070901;28;20881;-67
2022/05/28 08:24:01;;;;;;;2.55;2.00;;;20.70;99.90;;;;;;5072344;28;20412;-68
2022/05/28 08:26:29;;;;;;;1.90;1.80;;;20.80;99.90;;;;;;5071904;28;20202;-67
2022/05/28 08:28:58;;;;;;;2.78;1.83;;;21.20;99.90;;;;;;5071207;28;20232;-67
2022/05/28 08:31:25;;;;;;;2.05;1.95;;;21.10;99.90;;;;;;5057642;28;20210;-67
2022/05/28 08:33:53;;;;;;;1.80;1.70;;;21.00;99.90;;;;;;5071774;28;20289;-67
2022/05/28 08:36:20;;;;;;;2.10;1.67;;;21.20;99.90;;;;;;5072170;28;20263;-67
2022/05/28 08:38:47;;;;;;;3.85;2.33;;;21.30;99.90;;;;;;5072227;28;20320;-67
2022/05/28 08:41:19;;;;;;;3.47;2.63;;;21.30;99.90;;;;;;5071981;28;20206;-67
2022/05/28 08:43:50;;;;;;;2.05;1.85;;;21.20;99.90;;;;;;5071870;28;20218;-67
2022/05/28 08:46:19;;;;;;;3.28;2.22;;;21.50;99.90;;;;;;5058283;28;20202;-67
2022/05/28 08:48:48;;;;;;;2.92;1.98;;;21.50;99.90;;;;;;5071749;28;20758;-69
2022/05/28 08:51:22;;;;;;;2.53;1.67;;;22.40;99.90;;;;;;5071717;28;20244;-70
2022/05/28 08:53:58;;;;;;;4.82;1.65;;;22.90;99.90;;;;;;5071445;28;20205;-69
2022/05/28 08:56:27;;;;;;;1.75;1.58;;;23.80;99.90;;;;;;5072299;28;20209;-69
2022/05/28 08:59:04;;;;;;;1.92;1.83;;;23.30;99.90;;;;;;5072156;28;20265;-69
2022/05/28 09:01:36;;;;;;;2.15;2.00;;;22.90;99.90;;;;;;5071541;28;20198;-69
2022/05/28 09:04:06;;;;;;;2.70;2.50;;;22.70;99.90;;;;;;5071632;28;20206;-69
2022/05/28 09:06:38;;;;;;;3.90;2.85;;;23.10;99.90;;;;;;5071609;28;20202;-69
2022/05/28 09:09:08;;;;;;;2.58;2.13;;;23.00;99.90;;;;;;5071630;28;20272;-69
2022/05/28 09:11:38;;;;;;;2.35;2.25;;;23.60;99.90;;;;;;5071001;28;20604;-66
2022/05/28 09:14:19;;;;;;;3.08;2.10;;;23.60;99.90;;;;;;5071346;28;20268;-68
2022/05/28 09:16:50;;;;;;;1.70;1.60;;;23.60;99.90;;;;;;5070992;28;20236;-70
2022/05/28 09:19:19;;;;;;;2.75;1.70;;;24.00;99.90;;;;;;5071374;28;20632;-67
2022/05/28 09:21:47;;;;;;;2.22;2.13;;;24.50;99.90;;;;;;5070955;28;20214;-67
2022/05/28 09:24:17;;;;;;;1.70;1.60;;;24.80;99.90;;;;;;5071405;28;20205;-67
2022/05/28 09:26:55;;;;;;;2.25;2.08;;;24.70;99.90;;;;;;5070872;28;20702;-67
2022/05/28 09:29:34;;;;;;;2.00;1.88;;;25.10;99.90;;;;;;5067353;28;20214;-67
2022/05/28 09:32:12;;;;;;;3.60;2.03;;;25.10;99.90;;;;;;5062997;28;20210;-67
2022/05/28 09:34:52;;;;;;;2.10;1.90;;;25.00;99.90;;;;;;5070715;28;20202;-67
2022/05/28 09:37:28;;;;;;;1.73;1.60;;;25.30;99.90;;;;;;5071153;28;20206;-67
2022/05/28 09:40:02;;;;;;;2.15;1.42;;;25.90;99.90;;;;;;5057376;28;20287;-68
2022/05/28 09:42:47;;;;;;;1.23;1.13;;;28.00;99.90;;;;;;5071184;28;20209;-67
2022/05/28 09:45:22;;;;;;;1.65;1.20;;;28.90;99.90;;;;;;5070950;28;20209;-67
2022/05/28 09:47:53;;;;;;;2.83;1.38;;;27.30;99.90;;;;;;5070120;28;20209;-67
2022/05/28 09:50:27;;;;;;;1.60;1.50;;;27.60;99.90;;;;;;5070984;28;20268;-67
2022/05/28 09:55:53;;;;;;;1.88;1.63;;;26.00;99.90;;;;;;5070488;28;20756;-69
2022/05/28 09:58:23;;;;;;;2.42;2.25;;;26.50;99.90;;;;;;5070751;28;20201;-68
2022/05/28 10:00:51;;;;;;;1.73;1.63;;;27.30;99.90;;;;;;5070499;28;20617;-67
2022/05/28 10:06:16;;;;;;;1.60;1.50;;;30.50;99.90;;;;;;5070933;28;20207;-68
2022/05/28 10:08:43;;;;;;;3.55;1.98;;;31.30;99.90;;;;;;5070194;28;20763;-67
2022/05/28 10:11:15;;;;;;;1.80;1.70;;;32.30;99.90;;;;;;5070765;28;20205;-68
2022/05/28 10:13:44;;;;;;;4.00;1.90;;;31.90;99.90;;;;;;5069946;28;20662;-69
2022/05/28 10:16:12;;;;;;;2.08;1.95;;;31.40;99.90;;;;;;5070685;28;20200;-67
2022/05/28 10:18:47;;;;;;;2.42;1.67;;;30.10;99.90;;;;;;5069930;28;20198;-69
2022/05/28 10:21:18;;;;;;;2.35;2.00;;;30.90;99.90;;;;;;5070459;28;20285;-68
2022/05/28 10:23:51;;;;;;;1.98;1.85;;;31.10;99.90;;;;;;5070162;28;20209;-67
2022/05/28 10:26:21;;;;;;;1.95;1.85;;;31.60;99.90;;;;;;5070626;28;20687;-67
2022/05/28 10:28:50;;;;;;;3.72;2.25;;;30.80;99.90;;;;;;5070338;28;20213;-67
2022/05/28 10:31:22;;;;;;;4.68;2.05;;;30.50;99.90;;;;;;5056024;28;20591;-67
2022/05/28 10:33:50;;;;;;;1.80;1.70;;;29.70;99.90;;;;;;5069890;28;20259;-70
2022/05/28 10:36:19;;;;;;;2.22;2.03;;;27.50;99.90;;;;;;5070162;28;20674;-67
2022/05/28 10:38:46;;;;;;;4.50;2.67;;;25.90;99.90;;;;;;5069851;28;20214;-67
2022/05/28 10:41:20;;;;;;;4.13;2.60;;;25.60;99.90;;;;;;5073243;28;20230;-67
2022/05/28 10:43:49;;;;;;;2.15;1.25;;;25.70;99.90;;;;;;5074193;28;20724;-68
2022/05/28 10:46:23;;;;;;;4.38;1.92;;;25.50;99.90;;;;;;5073942;28;20233;-67
2022/05/28 10:49:10;;;;;;;1.90;1.63;;;25.10;99.90;;;;;;5074272;28;20818;-67
2022/05/28 10:51:48;;;;;;;2.47;1.80;;;25.00;99.90;;;;;;5073847;28;20214;-67
2022/05/28 10:54:25;;;;;;;3.03;1.40;;;24.90;99.90;;;;;;5074269;28;20209;-68
2022/05/28 10:57:08;;;;;;;2.92;1.75;;;25.20;99.90;;;;;;5073982;28;20285;-66
2022/05/28 11:00:03;;;;;;;2.50;1.48;;;25.20;99.90;;;;;;5073862;28;20274;-68
2022/05/28 11:02:55;;;;;;;3.35;1.98;;;25.10;99.90;;;;;;5074007;28;20256;-67
2022/05/28 11:05:39;;;;;;;2.20;1.90;;;25.30;99.90;;;;;;5074085;28;20609;-67
2022/05/28 11:08:13;;;;;;;1.55;1.30;;;25.50;99.90;;;;;;5074052;28;20267;-67
2022/05/28 11:11:07;;;;;;;1.63;1.23;;;25.50;99.90;;;;;;5073689;28;20367;-67
2022/05/28 11:13:53;;;;;;;2.75;1.17;;;25.30;99.90;;;;;;5073220;28;20272;-67
2022/05/28 11:16:46;;;;;;;2.53;1.50;;;25.20;99.90;;;;;;5073712;28;20670;-67
2022/05/28 11:19:30;;;;;;;1.30;1.20;;;25.30;99.90;;;;;;5061787;28;20206;-68
2022/05/28 11:22:17;;;;;;;2.92;2.00;;;25.50;99.90;;;;;;5073874;28;20738;-67
2022/05/28 11:24:55;;;;;;;1.52;1.10;;;25.50;99.90;;;;;;5073377;28;20259;-66
2022/05/28 11:27:42;;;;;;;4.53;1.40;;;25.40;99.90;;;;;;5073437;28;20206;-69
2022/05/28 11:30:14;;;;;;;3.97;2.22;;;25.30;99.90;;;;;;5063196;28;20221;-67
2022/05/28 11:32:45;;;;;;;3.92;1.70;;;25.60;99.90;;;;;;5069930;28;20222;-67
2022/05/28 11:35:21;;;;;;;1.52;1.42;;;25.60;99.90;;;;;;5073555;28;20255;-66
2022/05/28 11:37:53;;;;;;;1.05;1.05;;;25.60;99.90;;;;;;5073087;28;20690;-66
2022/05/28 11:40:24;;;;;;;1.05;0.90;;;25.60;99.90;;;;;;5073338;28;20230;-66
2022/05/28 11:42:58;;;;;;;1.45;1.33;;;25.60;99.90;;;;;;5072748;28;20792;-67
2022/05/28 11:45:31;;;;;;;0.93;0.90;;;25.60;99.90;;;;;;5073727;28;20259;-69
2022/05/28 11:48:01;;;;;;;1.50;1.40;;;25.40;99.90;;;;;;5073325;28;20236;-67
2022/05/28 11:53:31;;;;;;;1.42;1.20;;;24.90;99.90;;;;;;5073087;28;20209;-67
2022/05/28 11:56:05;;;;;;;1.85;1.45;;;24.90;99.90;;;;;;5073504;28;20252;-66
2022/05/28 11:58:36;;;;;;;1.90;1.48;;;24.90;99.90;;;;;;5072453;28;20202;-67
2022/05/28 12:01:10;;;;;;;1.50;1.15;;;24.70;99.90;;;;;;5073105;28;20249;-67
2022/05/28 12:03:38;;;;;;;1.38;1.27;;;24.70;99.90;;;;;;5072468;28;20213;-66
2022/05/28 12:06:20;;;;;;;1.52;1.42;;;24.60;99.90;;;;;;5073214;28;20587;-66
2022/05/28 12:08:55;;;;;;;3.00;1.20;;;24.70;99.90;;;;;;5058714;28;20202;-67
2022/05/28 12:11:32;;;;;;;1.20;1.10;;;24.70;99.90;;;;;;5072854;28;20213;-67
2022/05/28 12:14:02;;;;;;;3.47;1.30;;;24.80;99.90;;;;;;5072643;28;20206;-67
2022/05/28 12:16:33;;;;;;;1.90;1.17;;;25.10;99.90;;;;;;5072898;28;20251;-66
2022/05/28 12:19:03;;;;;;;3.33;0.95;;;25.30;99.90;;;;;;5072639;28;20259;-67
2022/05/28 12:21:35;;;;;;;2.70;1.20;;;25.20;99.90;;;;;;5072514;28;20328;-67
2022/05/28 12:24:09;;;;;;;1.23;1.13;;;25.00;99.90;;;;;;5072587;28;20202;-67
2022/05/28 12:26:57;;;;;;;1.90;1.30;;;25.60;99.90;;;;;;5072151;28;20202;-67
2022/05/28 12:29:37;;;;;;;1.65;1.50;;;25.30;99.90;;;;;;5068753;28;20682;-67
2022/05/28 12:32:16;;;;;;;3.47;2.13;;;25.10;99.90;;;;;;5064284;28;20217;-66
2022/05/28 12:34:52;;;;;;;3.40;1.10;;;25.50;99.90;;;;;;5071916;28;20202;-67
2022/05/28 12:37:24;;;;;;;1.25;1.15;;;25.70;99.90;;;;;;5072282;28;20217;-67
2022/05/28 12:40:13;;;;;;;1.33;1.20;;;25.70;99.90;;;;;;5071780;28;20210;-67
2022/05/28 12:42:41;;;;;;;3.50;1.23;;;25.70;99.90;;;;;;5071339;28;20670;-67
2022/05/28 12:45:14;;;;;;;3.38;1.23;;;26.00;99.90;;;;;;5072051;28;20273;-68
2022/05/28 12:47:41;;;;;;;2.00;0.90;;;26.00;99.90;;;;;;5071522;28;20206;-67
2022/05/28 12:50:16;;;;;;;1.00;0.90;;;25.90;99.90;;;;;;5072096;28;20618;-67
2022/05/28 12:52:51;;;;;;;2.20;1.20;;;26.00;99.90;;;;;;5071830;28;20263;-67
2022/05/28 12:55:31;;;;;;;2.50;1.25;;;26.10;99.90;;;;;;5072068;28;20551;-67
2022/05/28 12:58:02;;;;;;;1.63;0.93;;;26.20;99.90;;;;;;5071539;28;20658;-67
2022/05/28 13:00:36;;;;;;;1.58;1.10;;;26.30;99.90;;;;;;5071928;28;20344;-67
2022/05/28 13:03:08;;;;;;;1.13;1.00;;;26.10;99.90;;;;;;5070925;28;20295;-67
2022/05/28 13:05:39;;;;;;;1.23;0.88;;;26.30;99.90;;;;;;5071485;28;20241;-67
2022/05/28 13:08:09;;;;;;;1.20;0.90;;;26.40;99.90;;;;;;5071501;28;20356;-66
2022/05/28 13:10:45;;;;;;;1.48;0.90;;;26.20;99.90;;;;;;5071203;28;20206;-67
2022/05/28 13:13:30;;;;;;;2.65;0.95;;;26.30;99.90;;;;;;5071521;28;20669;-67
2022/05/28 13:16:19;;;;;;;3.03;1.38;;;26.20;99.90;;;;;;5071828;28;20263;-67
2022/05/28 13:19:10;;;;;;;1.40;1.00;;;26.10;99.90;;;;;;5070956;28;20253;-67
2022/05/28 13:21:55;;;;;;;1.73;1.38;;;26.10;99.90;;;;;;5071025;28;20246;-68